< < Back
Terminal Aerodrome Forecast


Current Version              Previous Versions:   1  2  3  4  5  6  7  8  9  

Terminal Aerodrome Forecast

746
FTUS42 KILM 281205 CCA
TAFILM
TAF COR
KILM 281205Z 2812/2912 04008KT 6SM BR VCSH BKN006 BKN060 BKN120
      TEMPO 2812/2814 SCT006
     FM281400 06008KT P6SM VCSH SCT015 SCT050 BKN120
     FM290000 04003KT P6SM SCT015 BKN050
     FM290900 05005KT 5SM BR BKN008=

Latest METAR

176
SAUS70 KWBC 290000
MTRILM
METAR KILM 282353Z AUTO 03004KT 10SM CLR 25/23 A3007 RMK AO2 SLP182
60030 T02500233 10300 20228 55009


USA.gov is the U.S. government's official web portal to all federal, state and local government web resources and services.